createdAt,value
2017-12-24T00:01:45.714Z,88.80
2017-12-24T00:04:13.338Z,88.30
2017-12-24T00:06:40.915Z,88.70
2017-12-24T00:09:09.243Z,88.30
2017-12-24T00:11:37.587Z,88.70
2017-12-24T00:14:05.188Z,88.70
2017-12-24T00:16:32.788Z,88.50
2017-12-24T00:19:00.464Z,88.40
2017-12-24T00:21:29.541Z,88.40
2017-12-24T00:23:59.324Z,88.50
2017-12-24T00:26:26.864Z,88.40
2017-12-24T00:28:54.418Z,88.20
2017-12-24T00:31:24.580Z,88.00
2017-12-24T00:33:52.240Z,88.00
2017-12-24T00:36:19.780Z,88.10
2017-12-24T00:38:47.340Z,87.90
2017-12-24T00:41:14.884Z,87.90
2017-12-24T00:43:42.419Z,87.70
2017-12-24T00:46:10.741Z,88.00
2017-12-24T00:48:38.281Z,87.90
2017-12-24T00:51:06.612Z,88.10
2017-12-24T00:53:34.235Z,88.20
2017-12-24T00:56:02.566Z,88.10
2017-12-24T00:58:30.107Z,88.00
2017-12-24T01:00:58.429Z,88.20
2017-12-24T01:03:26.025Z,88.20
2017-12-24T01:05:53.620Z,88.20
2017-12-24T01:08:21.164Z,88.20
2017-12-24T01:10:48.750Z,88.40
2017-12-24T01:13:16.300Z,88.40
2017-12-24T01:15:43.864Z,88.30
2017-12-24T01:18:11.402Z,88.20
2017-12-24T01:20:38.972Z,88.00
2017-12-24T01:23:06.555Z,88.40
2017-12-24T01:25:34.096Z,88.40
2017-12-24T01:28:01.653Z,88.20
2017-12-24T01:30:29.204Z,88.00
2017-12-24T01:32:56.760Z,88.20
2017-12-24T01:35:24.296Z,88.30
2017-12-24T01:37:52.616Z,87.80
2017-12-24T01:40:20.151Z,87.80
2017-12-24T01:42:48.482Z,87.80
2017-12-24T01:45:16.020Z,87.70
2017-12-24T01:47:51.099Z,88.10
2017-12-24T01:50:18.640Z,88.10
2017-12-24T01:52:46.200Z,88.00
2017-12-24T01:55:14.508Z,88.10
2017-12-24T01:57:42.105Z,88.10
2017-12-24T02:00:09.644Z,88.00
2017-12-24T02:02:37.195Z,88.10
2017-12-24T02:05:04.763Z,88.10
2017-12-24T02:07:32.309Z,88.20
2017-12-24T02:09:59.862Z,88.40
2017-12-24T02:12:27.404Z,88.10
2017-12-24T02:14:54.968Z,88.20
2017-12-24T02:17:22.516Z,88.00
2017-12-24T02:19:50.077Z,88.20
2017-12-24T02:22:17.607Z,88.20
2017-12-24T02:24:45.180Z,88.20
2017-12-24T02:27:12.722Z,88.10
2017-12-24T02:29:41.057Z,88.30
2017-12-24T02:32:08.620Z,88.40
2017-12-24T02:34:36.191Z,88.30
2017-12-24T02:37:03.739Z,88.40
2017-12-24T02:39:31.285Z,88.30
2017-12-24T02:41:59.670Z,88.30
2017-12-24T02:44:27.186Z,88.30
2017-12-24T02:46:54.744Z,88.40
2017-12-24T02:49:22.288Z,88.90
2017-12-24T02:51:50.610Z,90.30
2017-12-24T02:54:18.186Z,90.10
2017-12-24T02:56:45.748Z,90.20
2017-12-24T02:59:13.296Z,90.30
2017-12-24T03:01:41.632Z,90.60
2017-12-24T03:04:09.177Z,90.60
2017-12-24T03:06:36.768Z,90.70
2017-12-24T03:09:04.320Z,90.70
2017-12-24T03:11:32.696Z,90.80
2017-12-24T03:14:01.005Z,91.10
2017-12-24T03:16:28.548Z,91.00
2017-12-24T03:18:56.130Z,91.20
2017-12-24T03:21:24.439Z,91.50
2017-12-24T03:23:52.001Z,91.40
2017-12-24T03:26:20.629Z,91.80
2017-12-24T03:28:48.241Z,91.60
2017-12-24T03:31:15.779Z,91.60
2017-12-24T03:33:43.340Z,91.90
2017-12-24T03:36:10.886Z,92.00
2017-12-24T03:38:39.213Z,92.10
2017-12-24T03:41:06.768Z,92.10
2017-12-24T03:43:34.329Z,92.10
2017-12-24T03:46:01.882Z,91.90
2017-12-24T03:48:30.213Z,91.80
2017-12-24T03:50:57.758Z,91.70
2017-12-24T03:53:25.324Z,91.60
2017-12-24T03:55:52.907Z,91.50
2017-12-24T03:58:20.452Z,91.40
2017-12-24T04:00:48.789Z,91.10
2017-12-24T04:03:18.251Z,91.10
2017-12-24T04:05:45.821Z,91.10
2017-12-24T04:08:13.364Z,91.10
2017-12-24T04:10:40.928Z,91.00
2017-12-24T04:13:08.468Z,90.90
2017-12-24T04:15:36.037Z,90.90
2017-12-24T04:18:03.575Z,90.80
2017-12-24T04:20:31.136Z,90.80
2017-12-24T04:22:58.679Z,90.70
2017-12-24T04:25:26.237Z,90.70
2017-12-24T04:27:53.850Z,90.70
2017-12-24T04:30:21.400Z,90.80
2017-12-24T04:32:48.945Z,90.70
2017-12-24T04:35:16.489Z,90.70
2017-12-24T04:37:44.820Z,90.80
2017-12-24T04:40:12.365Z,90.80
2017-12-24T04:42:39.932Z,90.90
2017-12-24T04:45:08.288Z,91.50
2017-12-24T04:47:35.923Z,91.50
2017-12-24T04:50:03.469Z,91.70
2017-12-24T04:52:31.029Z,91.80
2017-12-24T04:54:59.336Z,92.00
2017-12-24T04:57:26.897Z,92.00
2017-12-24T04:59:55.205Z,92.20
2017-12-24T05:02:22.772Z,92.20
2017-12-24T05:04:50.314Z,92.10
2017-12-24T05:07:17.879Z,92.20
2017-12-24T05:09:45.437Z,92.00
2017-12-24T05:12:13.021Z,92.10
2017-12-24T05:14:40.569Z,91.60
2017-12-24T05:17:08.113Z,91.70
2017-12-24T05:19:35.674Z,91.40
2017-12-24T05:22:03.221Z,91.40
2017-12-24T05:24:31.556Z,91.10
2017-12-24T05:26:59.105Z,91.20
2017-12-24T05:29:26.674Z,91.00
2017-12-24T05:31:54.217Z,91.10
2017-12-24T05:34:21.785Z,91.20
2017-12-24T05:36:49.331Z,91.30
2017-12-24T05:39:17.666Z,91.90
2017-12-24T05:41:45.971Z,92.10
2017-12-24T05:44:13.545Z,92.10
2017-12-24T05:46:41.084Z,92.30
2017-12-24T05:49:09.389Z,92.70
2017-12-24T05:51:37.720Z,92.60
2017-12-24T05:54:05.261Z,92.60
2017-12-24T05:56:32.841Z,92.70
2017-12-24T05:59:00.393Z,92.80
2017-12-24T06:01:28.720Z,92.80
2017-12-24T06:03:56.281Z,92.80
2017-12-24T06:06:23.874Z,93.10
2017-12-24T06:08:51.418Z,93.10
2017-12-24T06:11:18.981Z,93.30
2017-12-24T06:13:46.520Z,93.50
2017-12-24T06:16:14.080Z,93.60
2017-12-24T06:18:41.622Z,93.70
2017-12-24T06:21:09.213Z,94.20
2017-12-24T06:23:36.765Z,94.00
2017-12-24T06:26:04.341Z,94.00
2017-12-24T06:28:31.912Z,94.10
2017-12-24T06:30:59.456Z,94.20
2017-12-24T06:33:27.020Z,94.40
2017-12-24T06:35:54.562Z,94.50
2017-12-24T06:38:22.129Z,94.70
2017-12-24T06:40:49.672Z,94.80
2017-12-24T06:43:17.232Z,94.90
2017-12-24T06:45:44.784Z,95.00
2017-12-24T06:48:12.346Z,95.00
2017-12-24T06:50:39.892Z,95.00
2017-12-24T06:53:07.461Z,95.10
2017-12-24T06:55:35.004Z,95.20
2017-12-24T06:58:02.564Z,95.20
2017-12-24T07:00:30.108Z,95.10
2017-12-24T07:02:57.675Z,95.10
2017-12-24T07:05:25.221Z,95.00
2017-12-24T07:07:52.762Z,95.00
2017-12-24T07:10:20.362Z,95.00
2017-12-24T07:12:47.904Z,95.10
2017-12-24T07:15:15.464Z,95.00
2017-12-24T07:17:43.005Z,95.10
2017-12-24T07:20:10.580Z,95.10
2017-12-24T07:22:39.017Z,95.10
2017-12-24T07:25:06.580Z,95.00
2017-12-24T07:27:34.298Z,95.10
2017-12-24T07:30:01.866Z,95.10
2017-12-24T07:32:30.182Z,95.10
2017-12-24T07:34:57.744Z,95.10
2017-12-24T07:37:26.049Z,95.20
2017-12-24T07:39:53.589Z,95.20
2017-12-24T07:42:21.925Z,95.20
2017-12-24T07:44:49.468Z,95.20
2017-12-24T07:47:17.050Z,95.10
2017-12-24T07:49:44.596Z,95.20
2017-12-24T07:52:12.929Z,95.10
2017-12-24T07:54:40.478Z,95.10
2017-12-24T07:57:08.038Z,95.10
2017-12-24T07:59:36.350Z,95.10
2017-12-24T08:02:03.916Z,95.10
2017-12-24T08:04:31.454Z,94.90
2017-12-24T08:06:59.781Z,95.30
2017-12-24T08:09:27.360Z,94.90
2017-12-24T08:11:54.929Z,95.00
2017-12-24T08:14:22.520Z,95.10
2017-12-24T08:16:50.097Z,95.10
2017-12-24T08:19:17.664Z,95.20
2017-12-24T08:21:45.310Z,95.00
2017-12-24T08:24:12.874Z,95.10
2017-12-24T08:26:40.419Z,95.10
2017-12-24T08:29:07.981Z,95.00
2017-12-24T08:31:35.557Z,95.00
2017-12-24T08:34:03.210Z,95.00
2017-12-24T08:36:30.851Z,95.00
2017-12-24T08:38:58.454Z,95.00
2017-12-24T08:41:26.006Z,95.00
2017-12-24T08:43:53.600Z,95.00
2017-12-24T08:46:21.937Z,94.80
2017-12-24T08:48:49.500Z,94.80
2017-12-24T08:51:17.805Z,94.70
2017-12-24T08:53:45.364Z,94.70
2017-12-24T08:56:13.718Z,94.70
2017-12-24T08:58:41.284Z,95.00
2017-12-24T09:01:11.244Z,94.60
2017-12-24T09:03:39.704Z,94.50
2017-12-24T09:06:07.288Z,94.50
2017-12-24T09:08:34.836Z,94.30
2017-12-24T09:11:02.408Z,94.40
2017-12-24T09:13:29.954Z,94.20
2017-12-24T09:15:57.542Z,94.40
2017-12-24T09:18:25.104Z,94.40
2017-12-24T09:20:52.680Z,94.60
2017-12-24T09:23:35.059Z,94.70
2017-12-24T09:26:02.650Z,94.60
2017-12-24T09:28:30.211Z,94.70
2017-12-24T09:30:57.792Z,94.80
2017-12-24T09:33:25.343Z,94.80
2017-12-24T09:35:53.642Z,94.60
2017-12-24T09:38:21.264Z,94.60
2017-12-24T09:40:48.828Z,94.50
2017-12-24T09:43:16.628Z,94.50
2017-12-24T09:45:44.172Z,94.60
2017-12-24T09:48:11.724Z,94.60
2017-12-24T09:50:39.264Z,94.70
2017-12-24T09:53:06.917Z,94.70
2017-12-24T09:55:34.507Z,94.60
2017-12-24T09:58:02.514Z,94.80
2017-12-24T10:00:30.870Z,94.70
2017-12-24T10:02:58.504Z,94.70
2017-12-24T10:05:26.324Z,94.60
2017-12-24T10:07:53.937Z,95.00
2017-12-24T10:10:22.248Z,94.70
2017-12-24T10:12:49.833Z,94.70
2017-12-24T10:15:17.387Z,94.70
2017-12-24T10:17:44.923Z,94.80
2017-12-24T10:20:12.504Z,94.80
2017-12-24T10:22:40.820Z,94.90
2017-12-24T10:25:08.384Z,94.90
2017-12-24T10:27:35.927Z,94.90
2017-12-24T10:30:03.484Z,94.80
2017-12-24T10:32:31.037Z,94.70
2017-12-24T10:34:58.624Z,94.80
2017-12-24T10:37:26.176Z,94.80
2017-12-24T10:39:53.744Z,95.00
2017-12-24T10:42:21.303Z,95.00
2017-12-24T10:44:48.878Z,94.80
2017-12-24T10:47:16.432Z,95.00
2017-12-24T10:49:44.004Z,95.20
2017-12-24T10:52:11.540Z,95.00
2017-12-24T10:54:39.126Z,94.80
2017-12-24T10:57:07.440Z,94.90
2017-12-24T10:59:35.645Z,94.90
2017-12-24T11:02:04.126Z,95.00
2017-12-24T11:04:31.684Z,94.80
2017-12-24T11:07:00.013Z,94.90
2017-12-24T11:09:27.615Z,94.90
2017-12-24T11:11:55.195Z,94.90
2017-12-24T11:14:23.528Z,94.90
2017-12-24T11:16:51.100Z,94.80
2017-12-24T11:19:18.672Z,94.90
2017-12-24T11:21:46.241Z,95.10
2017-12-24T11:24:13.784Z,95.10
2017-12-24T11:26:42.113Z,94.90
2017-12-24T11:29:09.658Z,94.80
2017-12-24T11:31:37.257Z,94.80
2017-12-24T11:34:04.823Z,94.70
2017-12-24T11:36:32.429Z,94.70
2017-12-24T11:38:59.978Z,94.80
2017-12-24T11:41:27.607Z,94.70
2017-12-24T11:43:55.941Z,94.90
2017-12-24T11:46:23.665Z,94.90
2017-12-24T11:48:52.017Z,94.60
2017-12-24T11:51:19.562Z,94.60
2017-12-24T11:53:47.191Z,94.60
2017-12-24T11:56:14.708Z,94.70
2017-12-24T11:58:42.272Z,94.70
2017-12-24T12:01:09.808Z,94.70
2017-12-24T12:03:37.380Z,94.60
2017-12-24T12:06:04.964Z,94.50
2017-12-24T12:08:33.306Z,94.40
2017-12-24T12:11:00.849Z,94.70
2017-12-24T12:13:28.423Z,94.30
2017-12-24T12:15:56.002Z,94.20
2017-12-24T12:18:23.577Z,94.20
2017-12-24T12:20:51.149Z,94.30
2017-12-24T12:23:18.726Z,94.40
2017-12-24T12:25:46.273Z,94.20
2017-12-24T12:28:14.692Z,94.00
2017-12-24T12:30:42.298Z,93.90
2017-12-24T12:33:09.841Z,93.90
2017-12-24T12:35:37.405Z,94.00
2017-12-24T12:38:05.049Z,93.80
2017-12-24T12:40:32.953Z,93.50
2017-12-24T12:43:00.664Z,93.30
2017-12-24T12:45:28.232Z,93.40
2017-12-24T12:47:55.783Z,93.20
2017-12-24T12:50:23.359Z,93.10
2017-12-24T12:52:50.901Z,93.10
2017-12-24T12:55:18.473Z,93.10
2017-12-24T12:57:46.032Z,92.90
2017-12-24T13:00:14.352Z,92.50
2017-12-24T13:02:41.922Z,92.50
2017-12-24T13:05:09.528Z,92.40
2017-12-24T13:07:37.125Z,92.20
2017-12-24T13:10:04.769Z,92.30
2017-12-24T13:12:32.567Z,92.30
2017-12-24T13:15:00.150Z,92.30
2017-12-24T13:17:27.921Z,92.30
2017-12-24T13:19:55.821Z,92.50
2017-12-24T13:22:23.432Z,92.10
2017-12-24T13:24:51.005Z,92.20
2017-12-24T13:27:18.581Z,92.00
2017-12-24T13:29:46.278Z,91.80
2017-12-24T13:32:13.900Z,91.90
2017-12-24T13:34:41.648Z,91.90
2017-12-24T13:37:10.075Z,91.50
2017-12-24T13:39:38.726Z,91.50
2017-12-24T13:42:06.268Z,91.50
2017-12-24T13:44:33.899Z,91.40
2017-12-24T13:47:01.501Z,91.50
2017-12-24T13:49:29.586Z,91.40
2017-12-24T13:51:57.691Z,91.30
2017-12-24T13:54:25.405Z,91.30
2017-12-24T13:56:55.142Z,91.30
2017-12-24T13:59:22.853Z,91.20
2017-12-24T14:01:50.424Z,91.20
2017-12-24T14:04:18.013Z,91.10
2017-12-24T14:06:45.574Z,91.10
2017-12-24T14:09:13.176Z,91.10
2017-12-24T14:11:40.721Z,91.00
2017-12-24T14:14:08.284Z,91.00
2017-12-24T14:16:35.839Z,91.00
2017-12-24T14:19:03.392Z,90.90
2017-12-24T14:21:30.989Z,90.90
2017-12-24T14:23:58.757Z,90.90
2017-12-24T14:26:26.525Z,90.70
2017-12-24T14:28:55.052Z,90.50
2017-12-24T14:31:22.628Z,90.40
2017-12-24T14:33:50.229Z,90.50
2017-12-24T14:36:17.836Z,90.50
2017-12-24T14:38:46.236Z,90.20
2017-12-24T14:41:13.801Z,90.20
2017-12-24T14:43:42.160Z,90.20
2017-12-24T14:46:09.752Z,90.20
2017-12-24T14:48:38.084Z,90.00
2017-12-24T14:51:05.660Z,89.70
2017-12-24T14:53:33.316Z,89.50
2017-12-24T14:56:00.881Z,89.00
2017-12-24T14:58:28.442Z,90.00
2017-12-24T15:00:56.751Z,89.60
2017-12-24T15:03:30.624Z,89.50
2017-12-24T15:05:58.212Z,89.40
2017-12-24T15:08:26.547Z,90.10
2017-12-24T15:10:54.111Z,89.60
2017-12-24T15:13:22.461Z,89.60
2017-12-24T15:15:50.970Z,90.10
2017-12-24T15:18:18.579Z,89.70
2017-12-24T15:20:48.080Z,89.40
2017-12-24T15:23:15.644Z,89.30
2017-12-24T15:25:43.183Z,89.10
2017-12-24T15:28:10.739Z,89.00
2017-12-24T15:30:38.292Z,89.30
2017-12-24T15:33:05.845Z,89.20
2017-12-24T15:35:33.410Z,89.30
2017-12-24T15:38:01.029Z,89.00
2017-12-24T15:40:29.710Z,88.90
2017-12-24T15:42:57.284Z,88.90
2017-12-24T15:45:24.912Z,88.60
2017-12-24T15:47:54.758Z,88.50
2017-12-24T15:50:22.698Z,88.70
2017-12-24T15:52:51.569Z,88.20
2017-12-24T15:55:20.057Z,87.70
2017-12-24T15:57:47.681Z,87.70
2017-12-24T16:00:17.064Z,88.10
2017-12-24T16:02:46.193Z,88.00
2017-12-24T16:05:13.757Z,87.80
2017-12-24T16:07:42.645Z,87.00
2017-12-24T16:10:11.165Z,87.50
2017-12-24T16:12:40.122Z,87.40
2017-12-24T16:15:07.759Z,87.30
2017-12-24T16:17:35.335Z,87.20
2017-12-24T16:20:03.760Z,87.40
2017-12-24T16:22:31.399Z,87.30
2017-12-24T16:24:59.107Z,87.70
2017-12-24T16:27:26.652Z,87.40
2017-12-24T16:29:54.231Z,87.50
2017-12-24T16:32:21.760Z,87.40
2017-12-24T16:34:50.130Z,87.80
2017-12-24T16:37:17.783Z,87.80
2017-12-24T16:39:46.194Z,87.70
2017-12-24T16:42:13.994Z,87.60
2017-12-24T16:44:42.374Z,87.40
2017-12-24T16:47:10.005Z,87.40
2017-12-24T16:49:37.558Z,87.80
2017-12-24T16:52:05.885Z,87.60
2017-12-24T16:54:33.430Z,87.60
2017-12-24T16:57:01.061Z,87.20
2017-12-24T16:59:28.681Z,87.60
2017-12-24T17:01:56.323Z,87.60
2017-12-24T17:04:24.688Z,88.40
2017-12-24T17:06:52.324Z,88.30
2017-12-24T17:09:19.921Z,88.20
2017-12-24T17:11:47.526Z,88.10
2017-12-24T17:14:15.932Z,88.60
2017-12-24T17:16:44.237Z,89.10
2017-12-24T17:19:11.795Z,89.10
2017-12-24T17:21:40.215Z,88.30
2017-12-24T17:24:07.905Z,88.30
2017-12-24T17:26:35.603Z,88.10
2017-12-24T17:29:03.241Z,88.20
2017-12-24T17:31:31.797Z,88.10
2017-12-24T17:33:59.463Z,88.10
2017-12-24T17:36:27.839Z,88.30
2017-12-24T17:38:55.479Z,88.30
2017-12-24T17:41:23.095Z,88.30
2017-12-24T17:43:51.555Z,88.60
2017-12-24T17:46:20.039Z,88.60
2017-12-24T17:48:47.679Z,88.30
2017-12-24T17:51:15.335Z,88.60
2017-12-24T17:53:43.775Z,88.80
2017-12-24T17:56:11.348Z,88.80
2017-12-24T17:58:38.881Z,89.10
2017-12-24T18:01:07.281Z,89.00
2017-12-24T18:03:34.894Z,89.00
2017-12-24T18:06:02.530Z,88.90
2017-12-24T18:08:30.141Z,89.00
2017-12-24T18:10:58.076Z,89.10
2017-12-24T18:13:25.716Z,89.20
2017-12-24T18:15:53.380Z,89.40
2017-12-24T18:18:20.998Z,89.20
2017-12-24T18:20:48.638Z,89.10
2017-12-24T18:23:16.288Z,89.00
2017-12-24T18:25:43.860Z,89.10
2017-12-24T18:28:11.392Z,89.10
2017-12-24T18:30:39.682Z,89.20
2017-12-24T18:33:07.990Z,89.40
2017-12-24T18:35:35.528Z,89.30
2017-12-24T18:38:03.860Z,89.00
2017-12-24T18:40:32.165Z,89.30
2017-12-24T18:42:59.867Z,89.30
2017-12-24T18:45:27.481Z,89.00
2017-12-24T18:47:55.046Z,89.20
2017-12-24T18:50:22.593Z,89.20
2017-12-24T18:52:50.925Z,89.30
2017-12-24T18:55:18.648Z,89.20
2017-12-24T18:57:47.052Z,89.40
2017-12-24T19:00:14.602Z,89.30
2017-12-24T19:02:42.349Z,88.90
2017-12-24T19:05:10.109Z,88.70
2017-12-24T19:07:37.717Z,88.80
2017-12-24T19:10:05.451Z,88.70
2017-12-24T19:12:33.190Z,89.10
2017-12-24T19:15:01.649Z,89.60
2017-12-24T19:17:31.301Z,89.50
2017-12-24T19:19:59.689Z,89.50
2017-12-24T19:22:28.150Z,89.80
2017-12-24T19:24:55.750Z,89.80
2017-12-24T19:27:23.296Z,89.70
2017-12-24T19:29:51.170Z,89.60
2017-12-24T19:32:19.101Z,89.60
2017-12-24T19:34:47.818Z,89.60
2017-12-24T19:37:15.717Z,89.80
2017-12-24T19:39:43.459Z,89.80
2017-12-24T19:42:11.034Z,89.90
2017-12-24T19:44:39.603Z,90.10
2017-12-24T19:47:08.177Z,90.40
2017-12-24T19:49:36.742Z,90.50
2017-12-24T19:52:04.462Z,90.50
2017-12-24T19:54:32.354Z,90.60
2017-12-24T19:57:00.183Z,90.40
2017-12-24T19:59:27.964Z,90.30
2017-12-24T20:01:55.715Z,90.50
2017-12-24T20:04:23.469Z,90.70
2017-12-24T20:06:51.310Z,90.80
2017-12-24T20:09:19.009Z,90.80
2017-12-24T20:11:47.592Z,91.10
2017-12-24T20:14:22.143Z,91.40
2017-12-24T20:16:49.953Z,91.30
2017-12-24T20:19:17.519Z,91.40
2017-12-24T20:21:45.853Z,91.40
2017-12-24T20:24:13.410Z,91.30
2017-12-24T20:26:41.893Z,91.40
2017-12-24T20:29:09.478Z,91.30
2017-12-24T20:31:37.054Z,91.00
2017-12-24T20:34:04.601Z,91.10
2017-12-24T20:36:32.176Z,91.00
2017-12-24T20:38:59.731Z,90.80
2017-12-24T20:41:28.199Z,90.70
2017-12-24T20:43:56.029Z,90.70
2017-12-24T20:46:23.788Z,90.60
2017-12-24T20:48:51.582Z,90.50
2017-12-24T20:51:19.486Z,90.50
2017-12-24T20:53:47.218Z,90.40
2017-12-24T20:56:15.009Z,90.30
2017-12-24T20:58:43.618Z,90.20
2017-12-24T21:01:11.205Z,90.10
2017-12-24T21:03:39.022Z,90.20
2017-12-24T21:06:07.462Z,90.30
2017-12-24T21:08:36.008Z,90.10
2017-12-24T21:11:04.515Z,90.10
2017-12-24T21:13:32.403Z,90.10
2017-12-24T21:15:59.978Z,90.00
2017-12-24T21:18:27.548Z,90.00
2017-12-24T21:20:55.133Z,90.00
2017-12-24T21:23:23.467Z,90.00
2017-12-24T21:25:51.010Z,90.00
2017-12-24T21:28:18.557Z,90.00
2017-12-24T21:30:46.129Z,89.80
2017-12-24T21:33:13.673Z,89.80
2017-12-24T21:35:41.237Z,89.80
2017-12-24T21:38:08.780Z,89.70
2017-12-24T21:40:36.350Z,90.00
2017-12-24T21:43:03.894Z,90.00
2017-12-24T21:45:31.464Z,89.80
2017-12-24T21:47:59.004Z,89.80
2017-12-24T21:50:27.337Z,90.10
2017-12-24T21:52:54.889Z,89.90
2017-12-24T21:55:22.456Z,89.80
2017-12-24T21:57:50.002Z,89.70
2017-12-24T22:00:17.544Z,89.50
2017-12-24T22:02:45.117Z,89.50
2017-12-24T22:05:12.889Z,90.20
2017-12-24T22:07:41.476Z,89.30
2017-12-24T22:10:09.158Z,89.30
2017-12-24T22:12:36.939Z,89.20
2017-12-24T22:15:04.702Z,89.10
2017-12-24T22:17:32.496Z,89.20
2017-12-24T22:20:01.053Z,89.40
2017-12-24T22:22:28.843Z,89.40
2017-12-24T22:24:56.825Z,89.60
2017-12-24T22:27:24.565Z,89.30
2017-12-24T22:29:53.424Z,89.70
2017-12-24T22:32:21.527Z,89.40
2017-12-24T22:34:49.452Z,89.60
2017-12-24T22:37:17.149Z,89.20
2017-12-24T22:39:49.436Z,89.20
2017-12-24T22:42:17.226Z,89.30
2017-12-24T22:44:44.854Z,89.60
2017-12-24T22:47:12.641Z,89.80
2017-12-24T22:49:40.472Z,90.00
2017-12-24T22:52:08.987Z,90.20
2017-12-24T22:54:37.469Z,90.30
2017-12-24T22:57:05.802Z,90.20
2017-12-24T22:59:33.404Z,90.20
2017-12-24T23:02:00.945Z,90.20
2017-12-24T23:04:28.594Z,90.00
2017-12-24T23:07:02.162Z,90.00
2017-12-24T23:09:29.859Z,90.00
2017-12-24T23:11:58.328Z,90.00
2017-12-24T23:14:27.149Z,90.00
2017-12-24T23:16:54.745Z,90.00
2017-12-24T23:19:23.972Z,90.00
2017-12-24T23:21:51.605Z,90.00
2017-12-24T23:24:19.177Z,89.90
2017-12-24T23:26:47.528Z,90.00
2017-12-24T23:29:15.076Z,89.90
2017-12-24T23:31:45.793Z,90.00
2017-12-24T23:34:13.484Z,90.00
2017-12-24T23:36:42.017Z,89.80
2017-12-24T23:39:09.636Z,89.80
2017-12-24T23:41:37.728Z,90.00
2017-12-24T23:44:05.272Z,89.90
2017-12-24T23:46:32.931Z,89.80
2017-12-24T23:49:00.505Z,89.80
2017-12-24T23:51:28.116Z,89.70
2017-12-24T23:53:56.474Z,89.90
2017-12-24T23:56:24.118Z,89.80
2017-12-24T23:58:51.709Z,90.00
